sensor_id;sensor_type;location;lat;lon;timestamp;pressure;altitude;pressure_sealevel;temperature;humidity
57779;BME280;43608;49.486;9.640;2022-09-09T00:00:21;98298.41;;;12.42;86.34
57779;BME280;43608;49.486;9.640;2022-09-09T00:02:27;98319.34;;;12.59;86.10
57779;BME280;43608;49.486;9.640;2022-09-09T00:05:14;98324.59;;;12.62;86.14
57779;BME280;43608;49.486;9.640;2022-09-09T00:06:18;98318.38;;;12.63;86.02
57779;BME280;43608;49.486;9.640;2022-09-09T00:07:10;98287.72;;;12.44;86.00
57779;BME280;43608;49.486;9.640;2022-09-09T00:07:48;98322.78;;;12.66;86.02
57779;BME280;43608;49.486;9.640;2022-09-09T00:08:21;98324.50;;;12.68;86.14
57779;BME280;43608;49.486;9.640;2022-09-09T00:09:01;98324.47;;;12.70;86.17
57779;BME280;43608;49.486;9.640;2022-09-09T00:09:41;98324.47;;;12.70;85.90
57779;BME280;43608;49.486;9.640;2022-09-09T00:10:41;98324.44;;;12.71;86.09
57779;BME280;43608;49.486;9.640;2022-09-09T00:11:13;98328.88;;;12.71;85.62
57779;BME280;43608;49.486;9.640;2022-09-09T00:13:52;98313.75;;;12.73;85.95
57779;BME280;43608;49.486;9.640;2022-09-09T00:15:18;98300.53;;;12.70;86.14
57779;BME280;43608;49.486;9.640;2022-09-09T00:16:35;98312.88;;;12.72;86.17
57779;BME280;43608;49.486;9.640;2022-09-09T00:17:17;98305.88;;;12.68;85.94
57779;BME280;43608;49.486;9.640;2022-09-09T00:19:20;98306.63;;;12.75;86.44
57779;BME280;43608;49.486;9.640;2022-09-09T00:20:55;98309.31;;;12.75;86.89
57779;BME280;43608;49.486;9.640;2022-09-09T00:21:37;98286.44;;;12.65;86.71
57779;BME280;43608;49.486;9.640;2022-09-09T00:22:20;98305.75;;;12.76;86.79
57779;BME280;43608;49.486;9.640;2022-09-09T00:22:59;98310.16;;;12.77;86.65
57779;BME280;43608;49.486;9.640;2022-09-09T00:25:46;98310.94;;;12.81;86.63
57779;BME280;43608;49.486;9.640;2022-09-09T00:27:22;98270.50;;;12.65;86.95
57779;BME280;43608;49.486;9.640;2022-09-09T00:27:54;98313.56;;;12.84;86.87
57779;BME280;43608;49.486;9.640;2022-09-09T00:28:26;98310.94;;;12.81;86.91
57779;BME280;43608;49.486;9.640;2022-09-09T00:29:22;98297.72;;;12.78;87.47
57779;BME280;43608;49.486;9.640;2022-09-09T00:30:42;98297.59;;;12.85;87.22
57779;BME280;43608;49.486;9.640;2022-09-09T00:31:16;98301.97;;;12.88;87.03
57779;BME280;43608;49.486;9.640;2022-09-09T00:31:49;98301.06;;;12.89;87.25
57779;BME280;43608;49.486;9.640;2022-09-09T00:32:22;98298.41;;;12.89;87.27
57779;BME280;43608;49.486;9.640;2022-09-09T00:32:59;98296.59;;;12.89;87.21
57779;BME280;43608;49.486;9.640;2022-09-09T00:33:30;98279.94;;;12.81;87.38
57779;BME280;43608;49.486;9.640;2022-09-09T00:34:33;98292.06;;;12.95;87.46
57779;BME280;43608;49.486;9.640;2022-09-09T00:35:17;98290.28;;;12.97;87.40
57779;BME280;43608;49.486;9.640;2022-09-09T00:35:58;98286.69;;;12.98;87.36
57779;BME280;43608;49.486;9.640;2022-09-09T00:36:32;98291.09;;;12.99;87.34
57779;BME280;43608;49.486;9.640;2022-09-09T00:37:04;98290.19;;;13.00;87.21
57779;BME280;43608;49.486;9.640;2022-09-09T00:37:35;98283.94;;;13.02;87.04
57779;BME280;43608;49.486;9.640;2022-09-09T00:38:25;98295.44;;;13.03;86.93
57779;BME280;43608;49.486;9.640;2022-09-09T00:38:59;98271.69;;;12.94;87.30
57779;BME280;43608;49.486;9.640;2022-09-09T00:39:37;98281.19;;;13.05;87.40
57779;BME280;43608;49.486;9.640;2022-09-09T00:40:26;98290.06;;;13.06;87.15
57779;BME280;43608;49.486;9.640;2022-09-09T00:41:05;98293.56;;;13.08;87.11
57779;BME280;43608;49.486;9.640;2022-09-09T00:41:57;98290.00;;;13.09;87.01
57779;BME280;43608;49.486;9.640;2022-09-09T00:43:52;98287.31;;;13.11;86.77
57779;BME280;43608;49.486;9.640;2022-09-09T00:46:41;98294.34;;;13.15;86.70
57779;BME280;43608;49.486;9.640;2022-09-09T00:48:08;98296.91;;;13.18;86.77
57779;BME280;43608;49.486;9.640;2022-09-09T00:50:00;98287.13;;;13.20;86.98
57779;BME280;43608;49.486;9.640;2022-09-09T00:50:53;98289.75;;;13.21;87.14
57779;BME280;43608;49.486;9.640;2022-09-09T00:53:39;98277.28;;;13.23;86.99
57779;BME280;43608;49.486;9.640;2022-09-09T00:56:20;98286.16;;;13.22;87.23
57779;BME280;43608;49.486;9.640;2022-09-09T00:57:35;98287.94;;;13.23;87.40
57779;BME280;43608;49.486;9.640;2022-09-09T00:58:07;98270.28;;;13.19;87.39
57779;BME280;43608;49.486;9.640;2022-09-09T00:58:38;98282.59;;;13.23;87.46
57779;BME280;43608;49.486;9.640;2022-09-09T00:59:51;98271.97;;;13.23;87.45
57779;BME280;43608;49.486;9.640;2022-09-09T01:00:25;98274.81;;;13.14;87.56
57779;BME280;43608;49.486;9.640;2022-09-09T01:01:02;98276.53;;;13.17;87.46
57779;BME280;43608;49.486;9.640;2022-09-09T01:01:36;98243.09;;;13.05;87.38
57779;BME280;43608;49.486;9.640;2022-09-09T01:02:32;98282.59;;;13.23;87.44
57779;BME280;43608;49.486;9.640;2022-09-09T01:03:55;98273.06;;;13.15;87.38
57779;BME280;43608;49.486;9.640;2022-09-09T01:04:31;98285.25;;;13.23;87.22
57779;BME280;43608;49.486;9.640;2022-09-09T01:05:12;98279.13;;;13.21;87.04
57779;BME280;43608;49.486;9.640;2022-09-09T01:06:31;98284.41;;;13.23;87.06
57779;BME280;43608;49.486;9.640;2022-09-09T01:07:17;98279.13;;;13.21;87.40
57779;BME280;43608;49.486;9.640;2022-09-09T01:07:49;98284.41;;;13.23;87.36
57779;BME280;43608;49.486;9.640;2022-09-09T01:09:05;98286.16;;;13.22;86.83
57779;BME280;43608;49.486;9.640;2022-09-09T01:11:22;98283.53;;;13.21;86.67
57779;BME280;43608;49.486;9.640;2022-09-09T01:13:11;98289.75;;;13.21;86.71
57779;BME280;43608;49.486;9.640;2022-09-09T01:13:45;98262.47;;;13.12;86.88
57779;BME280;43608;49.486;9.640;2022-09-09T01:15:11;98279.13;;;13.21;86.83
57779;BME280;43608;49.486;9.640;2022-09-09T01:15:44;98283.50;;;13.22;86.67
57779;BME280;43608;49.486;9.640;2022-09-09T01:16:17;98285.25;;;13.23;86.76
57779;BME280;43608;49.486;9.640;2022-09-09T01:16:48;98279.16;;;13.18;86.85
57779;BME280;43608;49.486;9.640;2022-09-09T01:17:26;98276.50;;;13.18;86.68
57779;BME280;43608;49.486;9.640;2022-09-09T01:18:03;98197.66;;;12.73;86.95
57779;BME280;43608;49.486;9.640;2022-09-09T01:18:39;98285.25;;;13.23;86.88
57779;BME280;43608;49.486;9.640;2022-09-09T01:19:20;98265.22;;;13.07;87.04
57779;BME280;43608;49.486;9.640;2022-09-09T01:20:49;98291.47;;;13.24;86.97
57779;BME280;43608;49.486;9.640;2022-09-09T01:22:34;98283.50;;;13.24;86.97
57779;BME280;43608;49.486;9.640;2022-09-09T01:24:22;98298.53;;;13.25;86.79
57779;BME280;43608;49.486;9.640;2022-09-09T01:25:28;98298.53;;;13.25;86.74
57779;BME280;43608;49.486;9.640;2022-09-09T01:26:21;98292.34;;;13.25;86.66
57779;BME280;43608;49.486;9.640;2022-09-09T01:26:59;98276.50;;;13.18;86.47
57779;BME280;43608;49.486;9.640;2022-09-09T01:27:32;98289.69;;;13.25;86.49
57779;BME280;43608;49.486;9.640;2022-09-09T01:28:06;98288.78;;;13.26;86.32
57779;BME280;43608;49.486;9.640;2022-09-09T01:28:38;98286.13;;;13.26;86.73
57779;BME280;43608;49.486;9.640;2022-09-09T01:29:12;98287.06;;;13.23;86.52
57779;BME280;43608;49.486;9.640;2022-09-09T01:29:43;98285.22;;;13.25;86.51
57779;BME280;43608;49.486;9.640;2022-09-09T01:30:16;98281.66;;;13.26;86.63
57779;BME280;43608;49.486;9.640;2022-09-09T01:30:47;98275.50;;;13.24;86.65
57779;BME280;43608;49.486;9.640;2022-09-09T01:31:31;98277.34;;;13.20;86.75
57779;BME280;43608;49.486;9.640;2022-09-09T01:33:16;98279.00;;;13.26;86.96
57779;BME280;43608;49.486;9.640;2022-09-09T01:33:47;98277.41;;;13.19;86.75
57779;BME280;43608;49.486;9.640;2022-09-09T01:34:17;98280.88;;;13.21;86.66
57779;BME280;43608;49.486;9.640;2022-09-09T01:34:49;98279.91;;;13.27;86.65
57779;BME280;43608;49.486;9.640;2022-09-09T01:35:37;98279.91;;;13.27;86.79
57779;BME280;43608;49.486;9.640;2022-09-09T01:36:42;98273.84;;;13.20;86.83
57779;BME280;43608;49.486;9.640;2022-09-09T01:37:12;98277.41;;;13.19;86.72
57779;BME280;43608;49.486;9.640;2022-09-09T01:37:43;98292.25;;;13.28;86.92
57779;BME280;43608;49.486;9.640;2022-09-09T01:38:14;98286.13;;;13.26;86.78
57779;BME280;43608;49.486;9.640;2022-09-09T01:38:45;98298.47;;;13.28;86.95
57779;BME280;43608;49.486;9.640;2022-09-09T01:39:16;98296.72;;;13.27;86.93
57779;BME280;43608;49.486;9.640;2022-09-09T01:39:46;98289.59;;;13.28;86.83
57779;BME280;43608;49.486;9.640;2022-09-09T01:40:17;98286.16;;;13.22;86.61
57779;BME280;43608;49.486;9.640;2022-09-09T01:40:48;98301.16;;;13.28;86.91
57779;BME280;43608;49.486;9.640;2022-09-09T01:41:19;98293.16;;;13.28;86.60
57779;BME280;43608;49.486;9.640;2022-09-09T01:41:49;98290.50;;;13.28;86.78
57779;BME280;43608;49.486;9.640;2022-09-09T01:42:20;98298.47;;;13.28;86.52
57779;BME280;43608;49.486;9.640;2022-09-09T01:42:51;98292.25;;;13.28;86.52
57779;BME280;43608;49.486;9.640;2022-09-09T01:43:23;98287.88;;;13.25;86.58
57779;BME280;43608;49.486;9.640;2022-09-09T01:43:55;98288.88;;;13.21;86.64
57779;BME280;43608;49.486;9.640;2022-09-09T01:44:27;98284.44;;;13.21;86.99
57779;BME280;43608;49.486;9.640;2022-09-09T01:44:58;98298.53;;;13.27;86.54
57779;BME280;43608;49.486;9.640;2022-09-09T01:45:28;98295.00;;;13.25;86.75
57779;BME280;43608;49.486;9.640;2022-09-09T01:46:01;98294.94;;;13.28;86.86
57779;BME280;43608;49.486;9.640;2022-09-09T01:46:31;98292.31;;;13.26;86.99
57779;BME280;43608;49.486;9.640;2022-09-09T01:47:02;98285.41;;;13.17;86.92
57779;BME280;43608;49.486;9.640;2022-09-09T01:47:34;98284.47;;;13.18;86.78
57779;BME280;43608;49.486;9.640;2022-09-09T01:48:04;98285.25;;;13.23;87.03
57779;BME280;43608;49.486;9.640;2022-09-09T01:48:35;98271.34;;;13.12;86.98
57779;BME280;43608;49.486;9.640;2022-09-09T01:49:07;98289.75;;;13.21;86.79
57779;BME280;43608;49.486;9.640;2022-09-09T01:49:38;98294.09;;;13.26;86.95
57779;BME280;43608;49.486;9.640;2022-09-09T01:50:10;98294.13;;;13.24;86.96
57779;BME280;43608;49.486;9.640;2022-09-09T01:50:41;98288.81;;;13.24;87.06
57779;BME280;43608;49.486;9.640;2022-09-09T01:51:12;98275.69;;;13.16;87.12
57779;BME280;43608;49.486;9.640;2022-09-09T01:51:43;98294.16;;;13.22;87.42
57779;BME280;43608;49.486;9.640;2022-09-09T01:52:14;98271.25;;;13.15;87.37
57779;BME280;43608;49.486;9.640;2022-09-09T01:52:47;98281.81;;;13.20;87.44
57779;BME280;43608;49.486;9.640;2022-09-09T01:53:21;98281.78;;;13.21;87.71
57779;BME280;43608;49.486;9.640;2022-09-09T01:53:51;98283.53;;;13.21;87.88
57779;BME280;43608;49.486;9.640;2022-09-09T01:54:25;98272.97;;;13.18;87.77
57779;BME280;43608;49.486;9.640;2022-09-09T01:54:56;98283.59;;;13.19;87.84
57779;BME280;43608;49.486;9.640;2022-09-09T01:55:40;98295.03;;;13.23;87.73
57779;BME280;43608;49.486;9.640;2022-09-09T01:57:30;98286.19;;;13.21;87.69
57779;BME280;43608;49.486;9.640;2022-09-09T01:58:10;98280.88;;;13.21;87.75
57779;BME280;43608;49.486;9.640;2022-09-09T02:00:07;98284.44;;;13.21;87.57
57779;BME280;43608;49.486;9.640;2022-09-09T02:00:49;98252.84;;;13.06;87.71
57779;BME280;43608;49.486;9.640;2022-09-09T02:01:32;98281.78;;;13.21;87.76
57779;BME280;43608;49.486;9.640;2022-09-09T02:02:52;98288.00;;;13.20;87.71
57779;BME280;43608;49.486;9.640;2022-09-09T02:03:28;98285.34;;;13.20;87.63
57779;BME280;43608;49.486;9.640;2022-09-09T02:04:08;98288.00;;;13.20;87.72
57779;BME280;43608;49.486;9.640;2022-09-09T02:05:30;98287.13;;;13.20;87.48
57779;BME280;43608;49.486;9.640;2022-09-09T02:06:33;98284.47;;;13.18;87.79
57779;BME280;43608;49.486;9.640;2022-09-09T02:07:13;98285.38;;;13.19;87.80
57779;BME280;43608;49.486;9.640;2022-09-09T02:07:48;98279.16;;;13.18;87.60
57779;BME280;43608;49.486;9.640;2022-09-09T02:08:23;98285.38;;;13.19;87.85
57779;BME280;43608;49.486;9.640;2022-09-09T02:08:57;98213.44;;;12.81;87.82
57779;BME280;43608;49.486;9.640;2022-09-09T02:09:30;98284.47;;;13.20;88.00
57779;BME280;43608;49.486;9.640;2022-09-09T02:10:09;98278.25;;;13.19;87.89
57779;BME280;43608;49.486;9.640;2022-09-09T02:10:51;98284.47;;;13.20;87.94
57779;BME280;43608;49.486;9.640;2022-09-09T02:11:26;98280.03;;;13.20;88.06
57779;BME280;43608;49.486;9.640;2022-09-09T02:12:02;98285.34;;;13.20;87.85
57779;BME280;43608;49.486;9.640;2022-09-09T02:12:39;98281.81;;;13.20;87.78
57779;BME280;43608;49.486;9.640;2022-09-09T02:13:13;98283.53;;;13.21;87.80
57779;BME280;43608;49.486;9.640;2022-09-09T02:13:46;98282.69;;;13.20;87.88
57779;BME280;43608;49.486;9.640;2022-09-09T02:14:27;98269.56;;;13.11;87.80
57779;BME280;43608;49.486;9.640;2022-09-09T02:15:05;98285.38;;;13.19;87.56
57779;BME280;43608;49.486;9.640;2022-09-09T02:15:48;98281.84;;;13.17;87.77
57779;BME280;43608;49.486;9.640;2022-09-09T02:16:49;98281.00;;;13.16;87.88
57779;BME280;43608;49.486;9.640;2022-09-09T02:17:28;98279.16;;;13.18;88.06
57779;BME280;43608;49.486;9.640;2022-09-09T02:18:04;98250.28;;;13.00;87.79
57779;BME280;43608;49.486;9.640;2022-09-09T02:19:56;98273.06;;;13.15;88.02
57779;BME280;43608;49.486;9.640;2022-09-09T02:20:29;98271.22;;;13.17;88.17
57779;BME280;43608;49.486;9.640;2022-09-09T02:21:03;98280.97;;;13.18;88.17
57779;BME280;43608;49.486;9.640;2022-09-09T02:21:35;98259.00;;;13.06;88.04
57779;BME280;43608;49.486;9.640;2022-09-09T02:22:06;98260.81;;;13.06;88.18
57779;BME280;43608;49.486;9.640;2022-09-09T02:22:39;98276.53;;;13.17;87.96
57779;BME280;43608;49.486;9.640;2022-09-09T02:23:12;98280.97;;;13.18;88.00
57779;BME280;43608;49.486;9.640;2022-09-09T02:23:46;98279.16;;;13.18;87.67
57779;BME280;43608;49.486;9.640;2022-09-09T02:24:18;98282.69;;;13.20;88.11
57779;BME280;43608;49.486;9.640;2022-09-09T02:24:49;98252.91;;;13.01;87.79
57779;BME280;43608;49.486;9.640;2022-09-09T02:25:24;98185.47;;;12.63;87.90
57779;BME280;43608;49.486;9.640;2022-09-09T02:25:57;98284.44;;;13.21;87.77
57779;BME280;43608;49.486;9.640;2022-09-09T02:26:28;98252.00;;;13.02;87.95
57779;BME280;43608;49.486;9.640;2022-09-09T02:27:01;98278.22;;;13.21;87.75
57779;BME280;43608;49.486;9.640;2022-09-09T02:27:34;98275.69;;;13.16;87.73
57779;BME280;43608;49.486;9.640;2022-09-09T02:28:07;98285.34;;;13.20;87.64
57779;BME280;43608;49.486;9.640;2022-09-09T02:28:40;98246.72;;;13.01;87.71
57779;BME280;43608;49.486;9.640;2022-09-09T02:29:17;98248.44;;;13.03;87.63
57779;BME280;43608;49.486;9.640;2022-09-09T02:29:50;98280.88;;;13.21;87.74
57779;BME280;43608;49.486;9.640;2022-09-09T02:30:21;98277.34;;;13.20;87.62
57779;BME280;43608;49.486;9.640;2022-09-09T02:30:52;98269.34;;;13.22;87.61
57779;BME280;43608;49.486;9.640;2022-09-09T02:31:25;98280.84;;;13.22;87.43
57779;BME280;43608;49.486;9.640;2022-09-09T02:31:59;98282.59;;;13.23;87.68
57779;BME280;43608;49.486;9.640;2022-09-09T02:32:34;98275.50;;;13.24;87.44
57779;BME280;43608;49.486;9.640;2022-09-09T02:33:07;98279.03;;;13.25;87.60
57779;BME280;43608;49.486;9.640;2022-09-09T02:33:44;98277.25;;;13.25;87.69
57779;BME280;43608;49.486;9.640;2022-09-09T02:34:18;98274.56;;;13.25;87.69
57779;BME280;43608;49.486;9.640;2022-09-09T02:34:55;98273.69;;;13.26;87.58
57779;BME280;43608;49.486;9.640;2022-09-09T02:35:28;98276.28;;;13.28;87.58
57779;BME280;43608;49.486;9.640;2022-09-09T02:36:01;98272.78;;;13.27;87.85
57779;BME280;43608;49.486;9.640;2022-09-09T02:36:34;98272.72;;;13.29;87.80
57779;BME280;43608;49.486;9.640;2022-09-09T02:37:06;98251.69;;;13.18;87.48
57779;BME280;43608;49.486;9.640;2022-09-09T02:37:40;98277.16;;;13.30;87.62
57779;BME280;43608;49.486;9.640;2022-09-09T02:38:13;98275.34;;;13.30;87.81
57779;BME280;43608;49.486;9.640;2022-09-09T02:38:47;98264.81;;;13.26;87.95
57779;BME280;43608;49.486;9.640;2022-09-09T02:39:23;98267.41;;;13.29;87.75
57779;BME280;43608;49.486;9.640;2022-09-09T02:39:54;98264.88;;;13.24;87.82
57779;BME280;43608;49.486;9.640;2022-09-09T02:40:24;98263.84;;;13.30;87.63
57779;BME280;43608;49.486;9.640;2022-09-09T02:40:54;98270.88;;;13.32;87.64
57779;BME280;43608;49.486;9.640;2022-09-09T02:41:33;98264.78;;;13.27;87.56
57779;BME280;43608;49.486;9.640;2022-09-09T02:42:04;98275.31;;;13.33;87.56
57779;BME280;43608;49.486;9.640;2022-09-09T02:42:43;98270.84;;;13.34;87.88
57779;BME280;43608;49.486;9.640;2022-09-09T02:43:15;98275.28;;;13.35;87.81
57779;BME280;43608;49.486;9.640;2022-09-09T02:43:48;98282.38;;;13.34;87.53
57779;BME280;43608;49.486;9.640;2022-09-09T02:44:19;98277.91;;;13.36;87.66
57779;BME280;43608;49.486;9.640;2022-09-09T02:44:49;98253.28;;;13.25;87.63
57779;BME280;43608;49.486;9.640;2022-09-09T02:45:23;98274.38;;;13.36;87.47
57779;BME280;43608;49.486;9.640;2022-09-09T02:47:35;98277.06;;;13.33;87.24
57779;BME280;43608;49.486;9.640;2022-09-09T02:49:03;98282.38;;;13.34;87.69
57779;BME280;43608;49.486;9.640;2022-09-09T02:49:44;98273.50;;;13.34;87.45
57779;BME280;43608;49.486;9.640;2022-09-09T02:50:25;98274.38;;;13.36;87.49
57779;BME280;43608;49.486;9.640;2022-09-09T02:51:13;98275.25;;;13.36;87.47
57779;BME280;43608;49.486;9.640;2022-09-09T02:51:58;98276.13;;;13.38;87.26
57779;BME280;43608;49.486;9.640;2022-09-09T02:53:23;98256.81;;;13.27;87.06
57779;BME280;43608;49.486;9.640;2022-09-09T02:54:27;98271.59;;;13.42;86.80
57779;BME280;43608;49.486;9.640;2022-09-09T02:55:16;98283.06;;;13.44;86.58
57779;BME280;43608;49.486;9.640;2022-09-09T02:55:48;98276.81;;;13.47;86.50
57779;BME280;43608;49.486;9.640;2022-09-09T02:56:24;98275.94;;;13.46;86.63
57779;BME280;43608;49.486;9.640;2022-09-09T02:57:02;98260.03;;;13.43;86.87
57779;BME280;43608;49.486;9.640;2022-09-09T02:57:34;98269.63;;;13.50;86.38
57779;BME280;43608;49.486;9.640;2022-09-09T02:58:07;98274.91;;;13.52;86.20
57779;BME280;43608;49.486;9.640;2022-09-09T02:58:39;98275.78;;;13.52;86.08
57779;BME280;43608;49.486;9.640;2022-09-09T02:59:10;98272.22;;;13.53;86.10
57779;BME280;43608;49.486;9.640;2022-09-09T02:59:43;98269.59;;;13.52;86.03
57779;BME280;43608;49.486;9.640;2022-09-09T03:00:14;98251.16;;;13.43;86.09
57779;BME280;43608;49.486;9.640;2022-09-09T03:00:49;98267.78;;;13.54;86.06
57779;BME280;43608;49.486;9.640;2022-09-09T03:01:20;98264.19;;;13.57;85.86
57779;BME280;43608;49.486;9.640;2022-09-09T03:01:51;98269.47;;;13.58;85.97
57779;BME280;43608;49.486;9.640;2022-09-09T03:02:21;98266.78;;;13.58;85.83
57779;BME280;43608;49.486;9.640;2022-09-09T03:02:52;98255.34;;;13.54;85.78
57779;BME280;43608;49.486;9.640;2022-09-09T03:03:24;98268.50;;;13.61;85.61
57779;BME280;43608;49.486;9.640;2022-09-09T03:03:55;98262.28;;;13.62;85.72
57779;BME280;43608;49.486;9.640;2022-09-09T03:04:25;98266.72;;;13.61;85.50
57779;BME280;43608;49.486;9.640;2022-09-09T03:04:56;98252.59;;;13.58;85.55
57779;BME280;43608;49.486;9.640;2022-09-09T03:05:26;98266.66;;;13.64;85.32
57779;BME280;43608;49.486;9.640;2022-09-09T03:05:58;98259.59;;;13.63;85.52
57779;BME280;43608;49.486;9.640;2022-09-09T03:06:28;98247.25;;;13.59;85.28
57779;BME280;43608;49.486;9.640;2022-09-09T03:06:58;98234.16;;;13.48;85.34
57779;BME280;43608;49.486;9.640;2022-09-09T03:07:29;98272.78;;;13.68;85.38
57779;BME280;43608;49.486;9.640;2022-09-09T03:07:59;98263.97;;;13.66;85.18
57779;BME280;43608;49.486;9.640;2022-09-09T03:08:30;98272.75;;;13.69;85.32
57779;BME280;43608;49.486;9.640;2022-09-09T03:09:00;98265.63;;;13.70;85.24
57779;BME280;43608;49.486;9.640;2022-09-09T03:09:32;98268.28;;;13.70;85.22
57779;BME280;43608;49.486;9.640;2022-09-09T03:10:05;98265.59;;;13.71;85.12
57779;BME280;43608;49.486;9.640;2022-09-09T03:10:36;98263.88;;;13.69;84.86
57779;BME280;43608;49.486;9.640;2022-09-09T03:11:07;98266.47;;;13.72;84.75
57779;BME280;43608;49.486;9.640;2022-09-09T03:11:39;98262.97;;;13.70;84.93
57779;BME280;43608;49.486;9.640;2022-09-09T03:12:10;98258.50;;;13.72;84.87
57779;BME280;43608;49.486;9.640;2022-09-09T03:12:41;98268.19;;;13.75;84.90
57779;BME280;43608;49.486;9.640;2022-09-09T03:13:11;98259.41;;;13.71;84.81
57779;BME280;43608;49.486;9.640;2022-09-09T03:13:43;98261.94;;;13.77;84.76
57779;BME280;43608;49.486;9.640;2022-09-09T03:14:13;98256.66;;;13.74;84.61
57779;BME280;43608;49.486;9.640;2022-09-09T03:14:44;98259.22;;;13.79;84.35
57779;BME280;43608;49.486;9.640;2022-09-09T03:15:16;98262.75;;;13.79;84.48
57779;BME280;43608;49.486;9.640;2022-09-09T03:15:47;98245.13;;;13.74;84.06
57779;BME280;43608;49.486;9.640;2022-09-09T03:16:18;98255.59;;;13.81;84.18
57779;BME280;43608;49.486;9.640;2022-09-09T03:16:49;98252.91;;;13.83;84.09
57779;BME280;43608;49.486;9.640;2022-09-09T03:17:19;98247.53;;;13.84;83.95
57779;BME280;43608;49.486;9.640;2022-09-09T03:17:49;98251.94;;;13.85;83.98
57779;BME280;43608;49.486;9.640;2022-09-09T03:18:21;98251.06;;;13.85;83.92
57779;BME280;43608;49.486;9.640;2022-09-09T03:18:51;98240.44;;;13.83;84.05
57779;BME280;43608;49.486;9.640;2022-09-09T03:19:22;98240.41;;;13.85;83.89
57779;BME280;43608;49.486;9.640;2022-09-09T03:19:52;98235.06;;;13.85;84.17
57779;BME280;43608;49.486;9.640;2022-09-09T03:20:25;98243.06;;;13.86;83.86
57779;BME280;43608;49.486;9.640;2022-09-09T03:20:56;98236.81;;;13.86;83.96
57779;BME280;43608;49.486;9.640;2022-09-09T03:21:28;98237.72;;;13.85;84.04
57779;BME280;43608;49.486;9.640;2022-09-09T03:21:58;98242.16;;;13.86;84.02
57779;BME280;43608;49.486;9.640;2022-09-09T03:22:29;98235.06;;;13.86;84.05
57779;BME280;43608;49.486;9.640;2022-09-09T03:23:00;98214.03;;;13.74;84.24
57779;BME280;43608;49.486;9.640;2022-09-09T03:23:31;98222.78;;;13.79;84.16
57779;BME280;43608;49.486;9.640;2022-09-09T03:24:01;98244.78;;;13.87;84.10
57779;BME280;43608;49.486;9.640;2022-09-09T03:24:33;98240.38;;;13.86;84.24
57779;BME280;43608;49.486;9.640;2022-09-09T03:25:04;98240.38;;;13.86;84.54
57779;BME280;43608;49.486;9.640;2022-09-09T03:25:34;98230.69;;;13.84;84.41
57779;BME280;43608;49.486;9.640;2022-09-09T03:26:06;98226.38;;;13.78;84.66
57779;BME280;43608;49.486;9.640;2022-09-09T03:26:36;98242.19;;;13.84;84.45
57779;BME280;43608;49.486;9.640;2022-09-09T03:27:07;98239.59;;;13.83;84.57
57779;BME280;43608;49.486;9.640;2022-09-09T03:27:38;98245.72;;;13.85;84.71
57779;BME280;43608;49.486;9.640;2022-09-09T03:28:08;98243.16;;;13.82;84.81
57779;BME280;43608;49.486;9.640;2022-09-09T03:28:38;98242.19;;;13.84;84.66
57779;BME280;43608;49.486;9.640;2022-09-09T03:29:09;98243.09;;;13.83;84.94
57779;BME280;43608;49.486;9.640;2022-09-09T03:29:39;98239.63;;;13.81;84.70
57779;BME280;43608;49.486;9.640;2022-09-09T03:30:10;98241.38;;;13.81;84.46
57779;BME280;43608;49.486;9.640;2022-09-09T03:30:41;98236.97;;;13.81;84.69
57779;BME280;43608;49.486;9.640;2022-09-09T03:31:11;98238.69;;;13.82;84.88
57779;BME280;43608;49.486;9.640;2022-09-09T03:31:41;98242.25;;;13.83;84.72
57779;BME280;43608;49.486;9.640;2022-09-09T03:32:13;98241.34;;;13.82;84.97
57779;BME280;43608;49.486;9.640;2022-09-09T03:32:43;98243.16;;;13.82;84.84
57779;BME280;43608;49.486;9.640;2022-09-09T03:33:14;98239.59;;;13.83;84.95
57779;BME280;43608;49.486;9.640;2022-09-09T03:33:46;98241.38;;;13.81;84.78
57779;BME280;43608;49.486;9.640;2022-09-09T03:34:16;98239.59;;;13.83;84.95
57779;BME280;43608;49.486;9.640;2022-09-09T03:34:47;98222.16;;;13.69;84.86
57779;BME280;43608;49.486;9.640;2022-09-09T03:35:19;98249.34;;;13.82;85.09
57779;BME280;43608;49.486;9.640;2022-09-09T03:35:50;98220.34;;;13.70;84.84
57779;BME280;43608;49.486;9.640;2022-09-09T03:36:21;98242.25;;;13.83;85.10
57779;BME280;43608;49.486;9.640;2022-09-09T03:36:51;98250.19;;;13.84;85.04
57779;BME280;43608;49.486;9.640;2022-09-09T03:37:21;98245.72;;;13.85;84.90
57779;BME280;43608;49.486;9.640;2022-09-09T03:37:52;98243.97;;;13.85;84.98
57779;BME280;43608;49.486;9.640;2022-09-09T03:38:24;98240.38;;;13.86;85.18
57779;BME280;43608;49.486;9.640;2022-09-09T03:38:54;98243.00;;;13.88;85.02
57779;BME280;43608;49.486;9.640;2022-09-09T03:39:25;98237.69;;;13.88;85.05
57779;BME280;43608;49.486;9.640;2022-09-09T03:39:55;98236.81;;;13.86;84.95
57779;BME280;43608;49.486;9.640;2022-09-09T03:40:26;98239.44;;;13.89;84.93
57779;BME280;43608;49.486;9.640;2022-09-09T03:40:56;98226.31;;;13.81;85.05
57779;BME280;43608;49.486;9.640;2022-09-09T03:41:30;98247.38;;;13.91;85.21
57779;BME280;43608;49.486;9.640;2022-09-09T03:42:01;98243.81;;;13.90;85.29
57779;BME280;43608;49.486;9.640;2022-09-09T03:42:34;98251.00;;;13.88;85.28
57779;BME280;43608;49.486;9.640;2022-09-09T03:43:06;98254.53;;;13.88;85.29
57779;BME280;43608;49.486;9.640;2022-09-09T03:43:37;98251.03;;;13.86;85.17
57779;BME280;43608;49.486;9.640;2022-09-09T03:44:07;98258.09;;;13.87;85.21
57779;BME280;43608;49.486;9.640;2022-09-09T03:44:38;98252.84;;;13.84;85.21
57779;BME280;43608;49.486;9.640;2022-09-09T03:45:09;98240.75;;;13.71;85.36
57779;BME280;43608;49.486;9.640;2022-09-09T03:45:45;98262.59;;;13.85;85.33
57779;BME280;43608;49.486;9.640;2022-09-09T03:46:17;98251.28;;;13.77;85.51
57779;BME280;43608;49.486;9.640;2022-09-09T03:46:48;98266.19;;;13.84;85.33
57779;BME280;43608;49.486;9.640;2022-09-09T03:47:20;98269.75;;;13.83;85.67
57779;BME280;43608;49.486;9.640;2022-09-09T03:47:51;98272.41;;;13.83;85.47
57779;BME280;43608;49.486;9.640;2022-09-09T03:48:23;98268.84;;;13.84;85.54